createdAt,value
2018-09-22T00:00:45.536Z,967.92
2018-09-22T00:01:45.514Z,968.00
2018-09-22T00:02:45.414Z,968.01
2018-09-22T00:03:45.353Z,967.96
2018-09-22T00:04:45.290Z,967.92
2018-09-22T00:05:45.230Z,967.91
2018-09-22T00:06:45.166Z,967.90
2018-09-22T00:07:45.105Z,967.91
2018-09-22T00:08:45.044Z,967.90
2018-09-22T00:09:44.985Z,967.98
2018-09-22T00:10:44.923Z,967.98
2018-09-22T00:11:44.866Z,968.01
2018-09-22T00:12:44.799Z,967.97
2018-09-22T00:13:44.741Z,967.95
2018-09-22T00:14:44.678Z,967.96
2018-09-22T00:15:44.616Z,967.95
2018-09-22T00:16:44.554Z,967.94
2018-09-22T00:17:44.498Z,967.91
2018-09-22T00:18:44.432Z,967.91
2018-09-22T00:19:44.369Z,967.87
2018-09-22T00:20:44.309Z,967.91
2018-09-22T00:21:44.306Z,967.94
2018-09-22T00:22:44.187Z,967.96
2018-09-22T00:23:44.124Z,967.91
2018-09-22T00:24:44.064Z,967.95
2018-09-22T00:25:44.004Z,967.93
2018-09-22T00:26:43.941Z,967.90
2018-09-22T00:27:43.877Z,967.93
2018-09-22T00:28:43.817Z,967.95
2018-09-22T00:29:43.757Z,967.99
2018-09-22T00:30:43.696Z,967.97
2018-09-22T00:31:43.636Z,967.92
2018-09-22T00:32:43.572Z,967.91
2018-09-22T00:33:43.512Z,967.91
2018-09-22T00:34:43.451Z,967.89
2018-09-22T00:35:43.388Z,967.90
2018-09-22T00:36:43.327Z,967.93
2018-09-22T00:37:43.264Z,967.94
2018-09-22T00:38:43.204Z,967.95
2018-09-22T00:39:43.143Z,967.99
2018-09-22T00:40:43.080Z,967.97
2018-09-22T00:41:43.020Z,967.98
2018-09-22T00:42:42.956Z,967.99
2018-09-22T00:43:42.894Z,968.04
2018-09-22T00:44:42.835Z,968.08
2018-09-22T00:45:42.772Z,968.06
2018-09-22T00:46:42.711Z,968.11
2018-09-22T00:47:42.651Z,968.13
2018-09-22T00:48:42.589Z,968.16
2018-09-22T00:49:42.527Z,968.12
2018-09-22T00:50:42.466Z,968.15
2018-09-22T00:51:42.403Z,968.11
2018-09-22T00:52:42.342Z,968.19
2018-09-22T00:53:42.282Z,968.22
2018-09-22T00:54:42.224Z,968.19
2018-09-22T00:55:42.159Z,968.20
2018-09-22T00:56:42.098Z,968.20
2018-09-22T00:57:42.036Z,968.23
2018-09-22T00:58:41.974Z,968.18
2018-09-22T00:59:41.914Z,968.19
2018-09-22T01:00:41.854Z,968.20
2018-09-22T01:01:41.789Z,968.21
2018-09-22T01:02:41.730Z,968.20
2018-09-22T01:03:41.666Z,968.18
2018-09-22T01:04:41.605Z,968.18
2018-09-22T01:05:41.542Z,968.17
2018-09-22T01:06:41.483Z,968.19
2018-09-22T01:07:41.419Z,968.17
2018-09-22T01:08:41.366Z,968.22
2018-09-22T01:09:41.313Z,968.22
2018-09-22T01:10:41.319Z,968.25
2018-09-22T01:11:41.178Z,968.27
2018-09-22T01:12:41.159Z,968.29
2018-09-22T01:13:41.054Z,968.30
2018-09-22T01:14:40.989Z,968.32
2018-09-22T01:15:40.947Z,968.31
2018-09-22T01:16:40.873Z,968.31
2018-09-22T01:17:40.813Z,968.31
2018-09-22T01:18:40.744Z,968.29
2018-09-22T01:19:40.682Z,968.30
2018-09-22T01:20:40.620Z,968.32
2018-09-22T01:21:40.559Z,968.37
2018-09-22T01:22:40.499Z,968.42
2018-09-22T01:23:40.436Z,968.40
2018-09-22T01:24:40.375Z,968.47
2018-09-22T01:25:40.314Z,968.47
2018-09-22T01:26:40.254Z,968.45
2018-09-22T01:27:40.187Z,968.48
2018-09-22T01:28:40.131Z,968.46
2018-09-22T01:29:40.073Z,968.46
2018-09-22T01:30:40.010Z,968.53
2018-09-22T01:31:39.942Z,968.49
2018-09-22T01:32:39.890Z,968.49
2018-09-22T01:33:39.821Z,968.50
2018-09-22T01:34:39.759Z,968.42
2018-09-22T01:35:39.698Z,968.41
2018-09-22T01:36:39.636Z,968.42
2018-09-22T01:37:39.579Z,968.49
2018-09-22T01:38:39.516Z,968.45
2018-09-22T01:39:39.451Z,968.53
2018-09-22T01:40:39.389Z,968.55
2018-09-22T01:41:39.328Z,968.54
2018-09-22T01:42:39.264Z,968.54
2018-09-22T01:43:39.209Z,968.53
2018-09-22T01:44:39.145Z,968.54
2018-09-22T01:45:39.083Z,968.62
2018-09-22T01:46:39.019Z,968.68
2018-09-22T01:47:38.957Z,968.73
2018-09-22T01:48:38.898Z,968.73
2018-09-22T01:49:38.835Z,968.71
2018-09-22T01:50:38.776Z,968.69
2018-09-22T01:51:38.713Z,968.70
2018-09-22T01:52:38.653Z,968.68
2018-09-22T01:53:38.589Z,968.65
2018-09-22T01:54:38.525Z,968.63
2018-09-22T01:55:38.467Z,968.66
2018-09-22T01:56:38.455Z,968.70
2018-09-22T01:57:38.343Z,968.80
2018-09-22T01:58:38.281Z,968.81
2018-09-22T01:59:38.215Z,968.81
2018-09-22T02:00:38.161Z,968.75
2018-09-22T02:01:38.098Z,968.71
2018-09-22T02:02:38.036Z,968.67
2018-09-22T02:03:37.971Z,968.67
2018-09-22T02:04:37.911Z,968.66
2018-09-22T02:05:37.845Z,968.69
2018-09-22T02:06:37.790Z,968.76
2018-09-22T02:07:37.723Z,968.80
2018-09-22T02:08:37.663Z,968.83
2018-09-22T02:09:37.602Z,968.84
2018-09-22T02:10:37.578Z,968.80
2018-09-22T02:11:37.477Z,968.76
2018-09-22T02:12:37.417Z,968.70
2018-09-22T02:13:37.357Z,968.71
2018-09-22T02:14:37.290Z,968.78
2018-09-22T02:15:37.228Z,968.79
2018-09-22T02:16:37.166Z,968.78
2018-09-22T02:17:37.109Z,968.83
2018-09-22T02:18:37.045Z,968.85
2018-09-22T02:19:36.994Z,968.82
2018-09-22T02:20:36.923Z,968.88
2018-09-22T02:21:36.863Z,968.87
2018-09-22T02:22:36.800Z,968.87
2018-09-22T02:23:36.772Z,968.93
2018-09-22T02:24:36.681Z,968.94
2018-09-22T02:25:36.617Z,968.93
2018-09-22T02:26:36.552Z,968.90
2018-09-22T02:27:36.490Z,968.88
2018-09-22T02:28:36.428Z,968.80
2018-09-22T02:29:36.368Z,968.80
2018-09-22T02:30:36.307Z,968.82
2018-09-22T02:31:36.240Z,968.84
2018-09-22T02:32:36.183Z,968.83
2018-09-22T02:33:36.118Z,968.88
2018-09-22T02:34:36.061Z,968.89
2018-09-22T02:35:35.997Z,968.92
2018-09-22T02:36:35.935Z,968.91
2018-09-22T02:37:35.869Z,968.87
2018-09-22T02:38:35.813Z,968.85
2018-09-22T02:39:35.749Z,968.84
2018-09-22T02:40:35.688Z,968.86
2018-09-22T02:41:35.622Z,968.83
2018-09-22T02:42:35.562Z,968.84
2018-09-22T02:43:35.502Z,968.86
2018-09-22T02:44:35.439Z,968.83
2018-09-22T02:45:35.380Z,968.89
2018-09-22T02:46:35.316Z,968.90
2018-09-22T02:47:35.253Z,968.92
2018-09-22T02:48:35.191Z,968.97
2018-09-22T02:49:35.126Z,968.98
2018-09-22T02:50:35.067Z,969.05
2018-09-22T02:51:35.005Z,968.98
2018-09-22T02:52:34.949Z,968.88
2018-09-22T02:53:34.883Z,968.80
2018-09-22T02:54:34.827Z,968.69
2018-09-22T02:55:34.759Z,968.72
2018-09-22T02:56:34.702Z,968.73
2018-09-22T02:57:34.635Z,968.74
2018-09-22T02:58:34.578Z,968.70
2018-09-22T02:59:34.512Z,968.68
2018-09-22T03:00:34.464Z,968.70
2018-09-22T03:01:34.388Z,968.77
2018-09-22T03:02:34.327Z,968.85
2018-09-22T03:03:34.264Z,968.84
2018-09-22T03:04:34.208Z,968.85
2018-09-22T03:05:34.140Z,968.80
2018-09-22T03:06:34.129Z,968.78
2018-09-22T03:07:34.018Z,968.74
2018-09-22T03:08:33.989Z,968.72
2018-09-22T03:09:33.905Z,968.70
2018-09-22T03:10:33.831Z,968.73
2018-09-22T03:11:33.771Z,968.75
2018-09-22T03:12:33.708Z,968.84
2018-09-22T03:13:33.645Z,968.88
2018-09-22T03:14:33.588Z,968.92
2018-09-22T03:15:33.630Z,968.94
2018-09-22T03:16:33.461Z,968.94
2018-09-22T03:17:33.398Z,968.95
2018-09-22T03:18:33.337Z,968.96
2018-09-22T03:19:33.277Z,968.98
2018-09-22T03:20:33.220Z,969.00
2018-09-22T03:21:33.153Z,969.09
2018-09-22T03:22:33.093Z,969.07
2018-09-22T03:23:33.025Z,969.19
2018-09-22T03:24:32.970Z,969.20
2018-09-22T03:25:32.904Z,969.22
2018-09-22T03:26:32.848Z,969.17
2018-09-22T03:27:32.783Z,969.16
2018-09-22T03:28:32.719Z,969.18
2018-09-22T03:29:32.653Z,969.14
2018-09-22T03:30:32.611Z,969.09
2018-09-22T03:31:32.532Z,969.01
2018-09-22T03:32:32.482Z,968.95
2018-09-22T03:33:32.411Z,968.94
2018-09-22T03:34:32.349Z,968.98
2018-09-22T03:35:32.285Z,968.95
2018-09-22T03:36:32.223Z,969.00
2018-09-22T03:37:32.163Z,969.07
2018-09-22T03:38:32.098Z,969.18
2018-09-22T03:39:32.038Z,969.23
2018-09-22T03:40:31.974Z,969.31
2018-09-22T03:41:31.914Z,969.38
2018-09-22T03:42:31.852Z,969.37
2018-09-22T03:43:31.791Z,969.32
2018-09-22T03:44:31.728Z,969.33
2018-09-22T03:45:31.666Z,969.20
2018-09-22T03:46:31.603Z,969.18
2018-09-22T03:47:31.541Z,969.17
2018-09-22T03:48:31.480Z,969.20
2018-09-22T03:49:31.419Z,969.15
2018-09-22T03:50:31.359Z,969.10
2018-09-22T03:51:31.294Z,968.97
2018-09-22T03:52:31.233Z,968.94
2018-09-22T03:53:31.172Z,968.88
2018-09-22T03:54:31.111Z,968.84
2018-09-22T03:55:31.052Z,968.82
2018-09-22T03:56:30.985Z,968.83
2018-09-22T03:57:30.922Z,968.82
2018-09-22T03:58:30.858Z,968.78
2018-09-22T03:59:30.801Z,968.78
2018-09-22T04:00:30.758Z,968.82
2018-09-22T04:01:30.676Z,968.82
2018-09-22T04:02:30.611Z,968.84
2018-09-22T04:03:30.550Z,968.81
2018-09-22T04:04:30.488Z,968.79
2018-09-22T04:05:30.425Z,968.85
2018-09-22T04:06:30.364Z,968.90
2018-09-22T04:07:30.302Z,968.99
2018-09-22T04:08:30.239Z,969.00
2018-09-22T04:09:30.188Z,969.01
2018-09-22T04:10:30.119Z,969.02
2018-09-22T04:11:30.053Z,968.99
2018-09-22T04:12:29.993Z,968.98
2018-09-22T04:13:29.930Z,968.99
2018-09-22T04:14:29.867Z,968.99
2018-09-22T04:15:29.806Z,969.04
2018-09-22T04:16:29.748Z,969.05
2018-09-22T04:17:29.686Z,969.08
2018-09-22T04:18:29.619Z,969.07
2018-09-22T04:19:29.561Z,969.01
2018-09-22T04:20:29.493Z,968.90
2018-09-22T04:21:29.434Z,968.87
2018-09-22T04:22:29.373Z,968.85
2018-09-22T04:23:29.307Z,968.95
2018-09-22T04:24:29.248Z,969.05
2018-09-22T04:25:29.187Z,969.15
2018-09-22T04:26:29.124Z,969.14
2018-09-22T04:27:29.063Z,969.11
2018-09-22T04:28:28.999Z,969.17
2018-09-22T04:29:28.937Z,969.16
2018-09-22T04:30:28.874Z,969.21
2018-09-22T04:31:28.810Z,969.23
2018-09-22T04:32:28.749Z,969.26
2018-09-22T04:33:28.754Z,969.24
2018-09-22T04:34:28.629Z,969.23
2018-09-22T04:35:28.568Z,969.21
2018-09-22T04:36:28.504Z,969.17
2018-09-22T04:37:28.439Z,969.17
2018-09-22T04:38:28.380Z,969.21
2018-09-22T04:39:28.319Z,969.27
2018-09-22T04:40:28.259Z,969.30
2018-09-22T04:41:28.194Z,969.26
2018-09-22T04:42:28.133Z,969.22
2018-09-22T04:43:28.072Z,969.20
2018-09-22T04:44:28.007Z,969.21
2018-09-22T04:45:27.945Z,969.22
2018-09-22T04:46:27.884Z,969.24
2018-09-22T04:47:27.823Z,969.25
2018-09-22T04:48:27.755Z,969.27
2018-09-22T04:49:27.698Z,969.31
2018-09-22T04:50:27.633Z,969.31
2018-09-22T04:51:27.573Z,969.29
2018-09-22T04:52:27.511Z,969.28
2018-09-22T04:53:27.448Z,969.29
2018-09-22T04:54:27.385Z,969.32
2018-09-22T04:55:27.321Z,969.31
2018-09-22T04:56:27.263Z,969.32
2018-09-22T04:57:27.204Z,969.29
2018-09-22T04:58:27.137Z,969.26
2018-09-22T04:59:27.076Z,969.26
2018-09-22T05:00:27.015Z,969.26
2018-09-22T05:01:26.952Z,969.32
2018-09-22T05:02:26.893Z,969.29
2018-09-22T05:03:26.827Z,969.34
2018-09-22T05:04:26.765Z,969.32
2018-09-22T05:05:26.704Z,969.33
2018-09-22T05:06:26.641Z,969.30
2018-09-22T05:07:26.583Z,969.28
2018-09-22T05:08:26.517Z,969.31
2018-09-22T05:09:26.454Z,969.22
2018-09-22T05:10:26.392Z,969.21
2018-09-22T05:11:26.332Z,969.25
2018-09-22T05:12:26.269Z,969.26
2018-09-22T05:13:26.209Z,969.29
2018-09-22T05:14:26.147Z,969.22
2018-09-22T05:15:26.080Z,969.19
2018-09-22T05:16:26.017Z,969.15
2018-09-22T05:17:25.962Z,969.14
2018-09-22T05:18:25.896Z,969.14
2018-09-22T05:19:25.833Z,969.15
2018-09-22T05:20:25.772Z,969.18
2018-09-22T05:21:25.714Z,969.20
2018-09-22T05:22:25.648Z,969.13
2018-09-22T05:23:25.587Z,969.13
2018-09-22T05:24:25.523Z,969.10
2018-09-22T05:25:25.464Z,969.16
2018-09-22T05:26:25.401Z,969.12
2018-09-22T05:27:25.340Z,969.14
2018-09-22T05:28:25.276Z,969.11
2018-09-22T05:29:25.211Z,969.17
2018-09-22T05:30:25.152Z,969.18
2018-09-22T05:31:25.088Z,969.22
2018-09-22T05:32:25.027Z,969.28
2018-09-22T05:33:25.019Z,969.28
2018-09-22T05:34:24.902Z,969.30
2018-09-22T05:35:24.900Z,969.31
2018-09-22T05:36:24.779Z,969.32
2018-09-22T05:37:24.717Z,969.38
2018-09-22T05:38:24.654Z,969.38
2018-09-22T05:39:24.590Z,969.38
2018-09-22T05:40:24.530Z,969.36
2018-09-22T05:41:24.469Z,969.34
2018-09-22T05:42:24.406Z,969.32
2018-09-22T05:43:24.343Z,969.34
2018-09-22T05:44:24.279Z,969.31
2018-09-22T05:45:24.221Z,969.29
2018-09-22T05:46:24.162Z,969.25
2018-09-22T05:47:24.095Z,969.22
2018-09-22T05:48:24.034Z,969.25
2018-09-22T05:49:23.971Z,969.24
2018-09-22T05:50:23.909Z,969.27
2018-09-22T05:51:23.845Z,969.29
2018-09-22T05:52:23.784Z,969.30
2018-09-22T05:53:23.723Z,969.31
2018-09-22T05:54:23.659Z,969.33
2018-09-22T05:55:23.597Z,969.32
2018-09-22T05:56:23.536Z,969.29
2018-09-22T05:57:23.475Z,969.30
2018-09-22T05:58:23.410Z,969.29
2018-09-22T05:59:23.348Z,969.30
2018-09-22T06:00:23.288Z,969.33
2018-09-22T06:01:23.227Z,969.35
2018-09-22T06:02:23.166Z,969.34
2018-09-22T06:03:23.108Z,969.39
2018-09-22T06:04:23.038Z,969.42
2018-09-22T06:05:22.982Z,969.43
2018-09-22T06:06:22.916Z,969.44
2018-09-22T06:07:22.853Z,969.48
2018-09-22T06:08:22.793Z,969.45
2018-09-22T06:09:22.734Z,969.47
2018-09-22T06:10:22.676Z,969.50
2018-09-22T06:11:22.606Z,969.51
2018-09-22T06:12:22.543Z,969.52
2018-09-22T06:13:22.483Z,969.53
2018-09-22T06:14:22.419Z,969.54
2018-09-22T06:15:22.359Z,969.55
2018-09-22T06:16:22.298Z,969.53
2018-09-22T06:17:22.236Z,969.53
2018-09-22T06:18:22.168Z,969.56
2018-09-22T06:19:22.111Z,969.60
2018-09-22T06:20:22.047Z,969.63
2018-09-22T06:21:21.986Z,969.58
2018-09-22T06:22:21.923Z,969.55
2018-09-22T06:23:21.862Z,969.54
2018-09-22T06:24:21.846Z,969.57
2018-09-22T06:25:21.737Z,969.52
2018-09-22T06:26:21.672Z,969.53
2018-09-22T06:27:21.613Z,969.61
2018-09-22T06:28:21.551Z,969.62
2018-09-22T06:29:21.484Z,969.61
2018-09-22T06:30:21.427Z,969.62
2018-09-22T06:31:21.365Z,969.63
2018-09-22T06:32:21.301Z,969.70
2018-09-22T06:33:21.240Z,969.74
2018-09-22T06:34:21.176Z,969.77
2018-09-22T06:35:21.117Z,969.81
2018-09-22T06:36:21.059Z,969.80
2018-09-22T06:37:21.004Z,969.75
2018-09-22T06:38:20.930Z,969.74
2018-09-22T06:39:20.869Z,969.77
2018-09-22T06:40:20.807Z,969.75
2018-09-22T06:41:20.747Z,969.73
2018-09-22T06:42:20.684Z,969.71
2018-09-22T06:43:20.623Z,969.78
2018-09-22T06:44:20.560Z,969.71
2018-09-22T06:45:20.496Z,969.74
2018-09-22T06:46:20.501Z,969.77
2018-09-22T06:47:20.372Z,969.82
2018-09-22T06:48:20.313Z,969.81
2018-09-22T06:49:20.256Z,969.74
2018-09-22T06:50:20.190Z,969.75
2018-09-22T06:51:20.124Z,969.73
2018-09-22T06:52:20.062Z,969.77
2018-09-22T06:53:20.002Z,969.80
2018-09-22T06:54:19.941Z,969.82
2018-09-22T06:55:19.877Z,969.86
2018-09-22T06:56:19.814Z,969.82
2018-09-22T06:57:19.759Z,969.77
2018-09-22T06:58:19.692Z,969.77
2018-09-22T06:59:19.633Z,969.69
2018-09-22T07:00:19.570Z,969.78
2018-09-22T07:01:19.510Z,969.77
2018-09-22T07:02:19.443Z,969.78
2018-09-22T07:03:19.385Z,969.76
2018-09-22T07:04:19.323Z,969.71
2018-09-22T07:05:19.261Z,969.70
2018-09-22T07:06:19.219Z,969.75
2018-09-22T07:07:19.136Z,969.74
2018-09-22T07:08:19.077Z,969.80
2018-09-22T07:09:19.013Z,969.80
2018-09-22T07:10:18.951Z,969.79
2018-09-22T07:11:18.890Z,969.79
2018-09-22T07:12:18.829Z,969.76
2018-09-22T07:13:18.767Z,969.78
2018-09-22T07:14:18.703Z,969.74
2018-09-22T07:15:18.643Z,969.74
2018-09-22T07:16:18.583Z,969.76
2018-09-22T07:17:18.519Z,969.81
2018-09-22T07:18:18.503Z,969.84
2018-09-22T07:19:18.396Z,969.84
2018-09-22T07:20:18.335Z,969.85
2018-09-22T07:21:18.273Z,969.91
2018-09-22T07:22:18.210Z,969.86
2018-09-22T07:23:18.148Z,969.87
2018-09-22T07:24:18.088Z,969.89
2018-09-22T07:25:18.048Z,969.86
2018-09-22T07:26:17.959Z,969.86
2018-09-22T07:27:17.905Z,969.92
2018-09-22T07:28:17.842Z,969.97
2018-09-22T07:29:17.782Z,969.99
2018-09-22T07:30:17.717Z,970.00
2018-09-22T07:31:17.664Z,970.05
2018-09-22T07:32:17.597Z,970.04
2018-09-22T07:33:17.534Z,970.10
2018-09-22T07:34:17.471Z,970.08
2018-09-22T07:35:17.410Z,970.12
2018-09-22T07:36:17.357Z,970.07
2018-09-22T07:37:17.287Z,970.05
2018-09-22T07:38:17.224Z,970.05
2018-09-22T07:39:17.182Z,970.04
2018-09-22T07:40:17.104Z,970.06
2018-09-22T07:41:17.043Z,970.09
2018-09-22T07:42:16.979Z,970.07
2018-09-22T07:43:16.920Z,970.08
2018-09-22T07:44:16.859Z,970.06
2018-09-22T07:45:16.800Z,970.12
2018-09-22T07:46:16.732Z,970.16
2018-09-22T07:47:16.678Z,970.11
2018-09-22T07:48:16.611Z,970.15
2018-09-22T07:49:16.552Z,970.12
2018-09-22T07:50:16.488Z,970.18
2018-09-22T07:51:16.428Z,970.17
2018-09-22T07:52:16.368Z,970.28
2018-09-22T07:53:16.305Z,970.35
2018-09-22T07:54:16.244Z,970.40
2018-09-22T07:55:16.182Z,970.35
2018-09-22T07:56:16.123Z,970.33
2018-09-22T07:57:16.135Z,970.33
2018-09-22T07:58:16.000Z,970.26
2018-09-22T07:59:15.938Z,970.25
2018-09-22T08:00:15.900Z,970.18
2018-09-22T08:01:15.817Z,970.22
2018-09-22T08:02:15.754Z,970.20
2018-09-22T08:03:15.691Z,970.22
2018-09-22T08:04:15.630Z,970.23
2018-09-22T08:05:15.569Z,970.21
2018-09-22T08:06:15.508Z,970.24
2018-09-22T08:07:15.447Z,970.30
2018-09-22T08:08:15.388Z,970.25
2018-09-22T08:09:15.325Z,970.24
2018-09-22T08:10:15.265Z,970.30
2018-09-22T08:11:15.204Z,970.25
2018-09-22T08:12:15.144Z,970.23
2018-09-22T08:13:15.081Z,970.19
2018-09-22T08:14:15.020Z,970.18
2018-09-22T08:15:14.959Z,970.20
2018-09-22T08:16:14.897Z,970.22
2018-09-22T08:17:14.836Z,970.18
2018-09-22T08:18:14.775Z,970.18
2018-09-22T08:19:14.713Z,970.17
2018-09-22T08:20:14.654Z,970.14
2018-09-22T08:21:14.593Z,970.16
2018-09-22T08:22:14.533Z,970.18
2018-09-22T08:23:14.471Z,970.22
2018-09-22T08:24:14.410Z,970.23
2018-09-22T08:25:14.373Z,970.20
2018-09-22T08:26:14.288Z,970.20
2018-09-22T08:27:14.224Z,970.16
2018-09-22T08:28:14.166Z,970.22
2018-09-22T08:29:14.106Z,970.21
2018-09-22T08:30:14.044Z,970.22
2018-09-22T08:31:13.983Z,970.19
2018-09-22T08:32:13.926Z,970.21
2018-09-22T08:33:13.862Z,970.11
2018-09-22T08:34:13.800Z,970.15
2018-09-22T08:35:13.742Z,970.18
2018-09-22T08:36:13.778Z,970.26
2018-09-22T08:37:13.676Z,970.28
2018-09-22T08:38:13.558Z,970.25
2018-09-22T08:39:13.496Z,970.28
2018-09-22T08:40:13.437Z,970.25
2018-09-22T08:41:13.375Z,970.26
2018-09-22T08:42:13.314Z,970.28
2018-09-22T08:43:13.258Z,970.23
2018-09-22T08:44:13.196Z,970.21
2018-09-22T08:45:13.134Z,970.16
2018-09-22T08:46:13.071Z,970.15
2018-09-22T08:47:13.010Z,970.11
2018-09-22T08:48:12.950Z,970.12
2018-09-22T08:49:12.892Z,970.11
2018-09-22T08:50:12.828Z,970.07
2018-09-22T08:51:12.805Z,970.05
2018-09-22T08:52:12.708Z,970.02
2018-09-22T08:53:12.649Z,970.04
2018-09-22T08:54:12.586Z,969.97
2018-09-22T08:55:12.527Z,969.96
2018-09-22T08:56:12.465Z,969.94
2018-09-22T08:57:12.406Z,969.95
2018-09-22T08:58:12.344Z,969.93
2018-09-22T08:59:12.283Z,969.88
2018-09-22T09:00:12.223Z,969.88
2018-09-22T09:01:12.162Z,969.88
2018-09-22T09:02:12.106Z,969.93
2018-09-22T09:03:12.040Z,969.87
2018-09-22T09:04:11.981Z,969.89
2018-09-22T09:05:11.954Z,969.90
2018-09-22T09:06:11.862Z,969.87
2018-09-22T09:07:11.801Z,969.86
2018-09-22T09:08:11.736Z,969.86
2018-09-22T09:09:11.683Z,969.87
2018-09-22T09:10:11.618Z,969.92
2018-09-22T09:11:11.558Z,969.88
2018-09-22T09:12:11.499Z,969.91
2018-09-22T09:13:11.493Z,969.96
2018-09-22T09:14:11.399Z,969.90
2018-09-22T09:15:11.318Z,969.88
2018-09-22T09:16:11.262Z,969.89
2018-09-22T09:17:11.257Z,969.88
2018-09-22T09:18:11.144Z,969.89
2018-09-22T09:19:11.078Z,969.90
2018-09-22T09:20:11.016Z,969.87
2018-09-22T09:21:10.956Z,969.90
2018-09-22T09:22:10.897Z,969.90
2018-09-22T09:23:10.834Z,969.87
2018-09-22T09:24:10.774Z,969.86
2018-09-22T09:25:10.719Z,969.86
2018-09-22T09:26:10.655Z,969.95
2018-09-22T09:27:10.594Z,969.97
2018-09-22T09:28:10.539Z,969.98
2018-09-22T09:29:10.473Z,969.97
2018-09-22T09:30:10.419Z,969.98
2018-09-22T09:31:10.355Z,969.92
2018-09-22T09:32:10.294Z,969.96
2018-09-22T09:33:10.234Z,969.98
2018-09-22T09:34:10.174Z,969.92
2018-09-22T09:35:10.115Z,969.89
2018-09-22T09:36:10.058Z,969.85
2018-09-22T09:37:09.994Z,969.86
2018-09-22T09:38:09.967Z,969.87
2018-09-22T09:39:09.922Z,969.81
2018-09-22T09:40:09.888Z,969.81
2018-09-22T09:41:09.754Z,969.75
2018-09-22T09:42:09.701Z,969.76
2018-09-22T09:43:09.648Z,969.73
2018-09-22T09:44:09.571Z,969.79
2018-09-22T09:45:09.513Z,969.87
2018-09-22T09:46:09.452Z,969.90
2018-09-22T09:47:09.390Z,969.87
2018-09-22T09:48:09.330Z,969.91
2018-09-22T09:49:09.270Z,969.92
2018-09-22T09:50:09.210Z,969.90
2018-09-22T09:51:09.154Z,969.91
2018-09-22T09:52:09.092Z,969.91
2018-09-22T09:53:09.030Z,969.92
2018-09-22T09:54:08.970Z,969.89
2018-09-22T09:55:08.910Z,969.91
2018-09-22T09:56:08.851Z,969.92
2018-09-22T09:57:08.792Z,969.93
2018-09-22T09:58:08.731Z,969.96
2018-09-22T09:59:08.673Z,969.96
2018-09-22T10:00:08.615Z,969.90
2018-09-22T10:01:08.550Z,969.89
2018-09-22T10:02:08.492Z,969.84
2018-09-22T10:03:08.430Z,969.83
2018-09-22T10:04:08.371Z,969.80
2018-09-22T10:05:08.311Z,969.84
2018-09-22T10:06:08.250Z,969.86
2018-09-22T10:07:08.191Z,969.88
2018-09-22T10:08:08.132Z,969.83
2018-09-22T10:09:08.072Z,969.85
2018-09-22T10:10:08.009Z,969.78
2018-09-22T10:11:07.953Z,969.82
2018-09-22T10:12:07.891Z,969.79
2018-09-22T10:13:07.833Z,969.79
2018-09-22T10:14:07.774Z,969.76
2018-09-22T10:15:07.714Z,969.82
2018-09-22T10:16:07.652Z,969.77
2018-09-22T10:17:07.593Z,969.79
2018-09-22T10:18:07.534Z,969.81
2018-09-22T10:19:07.474Z,969.89
2018-09-22T10:20:07.444Z,969.86
2018-09-22T10:21:07.355Z,969.82
2018-09-22T10:22:07.295Z,969.77
2018-09-22T10:23:07.234Z,969.75
2018-09-22T10:24:07.173Z,969.69
2018-09-22T10:25:07.111Z,969.64
2018-09-22T10:26:07.055Z,969.62
2018-09-22T10:27:06.995Z,969.56
2018-09-22T10:28:07.000Z,969.61
2018-09-22T10:29:06.876Z,969.58
2018-09-22T10:30:06.816Z,969.53
2018-09-22T10:31:06.757Z,969.47
2018-09-22T10:32:06.697Z,969.43
2018-09-22T10:33:06.636Z,969.41
2018-09-22T10:34:06.575Z,969.41
2018-09-22T10:35:06.516Z,969.42
2018-09-22T10:36:06.459Z,969.43
2018-09-22T10:37:06.394Z,969.43
2018-09-22T10:38:06.341Z,969.47
2018-09-22T10:39:06.284Z,969.42
2018-09-22T10:40:06.216Z,969.41
2018-09-22T10:41:06.160Z,969.42
2018-09-22T10:42:06.103Z,969.37
2018-09-22T10:43:06.038Z,969.37
2018-09-22T10:44:05.979Z,969.35
2018-09-22T10:45:05.921Z,969.35
2018-09-22T10:46:05.861Z,969.36
2018-09-22T10:47:05.801Z,969.31
2018-09-22T10:48:05.742Z,969.31
2018-09-22T10:49:05.682Z,969.27
2018-09-22T10:50:05.623Z,969.26
2018-09-22T10:51:05.564Z,969.26
2018-09-22T10:52:05.504Z,969.24
2018-09-22T10:53:05.557Z,969.28
2018-09-22T10:54:05.384Z,969.35
2018-09-22T10:55:05.323Z,969.35
2018-09-22T10:56:05.265Z,969.24
2018-09-22T10:57:05.205Z,969.26
2018-09-22T10:58:05.144Z,969.20
2018-09-22T10:59:05.087Z,969.19
2018-09-22T11:00:05.025Z,969.18
2018-09-22T11:01:04.966Z,969.18
2018-09-22T11:02:04.903Z,969.16
2018-09-22T11:03:04.847Z,969.07
2018-09-22T11:04:04.790Z,969.08
2018-09-22T11:05:04.727Z,969.08
2018-09-22T11:06:04.666Z,969.04
2018-09-22T11:07:04.607Z,969.06
2018-09-22T11:08:04.547Z,969.09
2018-09-22T11:09:04.490Z,969.01
2018-09-22T11:10:04.429Z,969.03
2018-09-22T11:11:04.369Z,969.00
2018-09-22T11:12:04.310Z,968.96
2018-09-22T11:13:04.252Z,968.93
2018-09-22T11:14:04.191Z,968.92
2018-09-22T11:15:04.132Z,968.90
2018-09-22T11:16:04.070Z,968.95
2018-09-22T11:17:04.011Z,968.93
2018-09-22T11:18:03.951Z,968.93
2018-09-22T11:19:03.890Z,968.90
2018-09-22T11:20:03.832Z,968.84
2018-09-22T11:21:03.773Z,968.85
2018-09-22T11:22:03.712Z,968.83
2018-09-22T11:23:03.653Z,968.80
2018-09-22T11:24:03.591Z,968.82
2018-09-22T11:25:03.532Z,968.81
2018-09-22T11:26:03.472Z,968.82
2018-09-22T11:27:03.474Z,968.82
2018-09-22T11:28:03.357Z,968.89
2018-09-22T11:29:03.295Z,968.91
2018-09-22T11:30:03.235Z,968.96
2018-09-22T11:31:03.175Z,968.99
2018-09-22T11:32:03.116Z,969.02
2018-09-22T11:33:03.056Z,969.01
2018-09-22T11:34:03.001Z,969.02
2018-09-22T11:35:02.935Z,969.03
2018-09-22T11:36:02.875Z,969.02
2018-09-22T11:37:02.816Z,968.97
2018-09-22T11:38:02.758Z,968.89
2018-09-22T11:39:02.699Z,968.88
2018-09-22T11:40:02.636Z,968.90
2018-09-22T11:41:02.580Z,968.95
2018-09-22T11:42:02.519Z,968.96
2018-09-22T11:43:02.460Z,969.00
2018-09-22T11:44:02.398Z,968.99
2018-09-22T11:45:02.339Z,969.01
2018-09-22T11:46:02.279Z,968.96
2018-09-22T11:47:02.217Z,968.98
2018-09-22T11:48:02.159Z,968.93
2018-09-22T11:49:02.101Z,968.96
2018-09-22T11:50:02.044Z,968.96
2018-09-22T11:51:01.980Z,968.97
2018-09-22T11:52:01.920Z,968.96
2018-09-22T11:53:01.859Z,968.89
2018-09-22T11:54:01.799Z,969.03
2018-09-22T11:55:01.737Z,968.96
2018-09-22T11:56:01.823Z,968.98
2018-09-22T11:57:01.622Z,969.02
2018-09-22T11:58:01.559Z,968.98
2018-09-22T11:59:01.497Z,968.97
2018-09-22T12:00:01.441Z,968.91
2018-09-22T12:01:01.380Z,968.88
2018-09-22T12:02:01.375Z,968.85
2018-09-22T12:03:01.258Z,968.78
2018-09-22T12:04:01.198Z,968.77
2018-09-22T12:05:01.139Z,968.76
2018-09-22T12:06:01.147Z,968.72
2018-09-22T12:07:01.016Z,968.72
2018-09-22T12:08:00.955Z,968.71
2018-09-22T12:09:00.896Z,968.69
2018-09-22T12:10:00.835Z,968.60
2018-09-22T12:11:00.777Z,968.60
2018-09-22T12:12:00.717Z,968.65
2018-09-22T12:13:00.657Z,968.59
2018-09-22T12:14:00.642Z,968.54
2018-09-22T12:15:00.537Z,968.51
2018-09-22T12:16:00.477Z,968.39
2018-09-22T12:17:00.413Z,968.36
2018-09-22T12:18:00.356Z,968.34
2018-09-22T12:19:00.293Z,968.26
2018-09-22T12:20:00.233Z,968.18
2018-09-22T12:21:00.176Z,968.20
2018-09-22T12:22:00.113Z,968.17
2018-09-22T12:23:00.052Z,968.17
2018-09-22T12:23:59.996Z,968.15
2018-09-22T12:24:59.932Z,968.12
2018-09-22T12:25:59.873Z,968.11
2018-09-22T12:26:59.810Z,968.13
2018-09-22T12:27:59.752Z,968.15